Time;durP1;ratioP1;P1;durP2;ratioP2;P2;SDS_P1;SDS_P2;PMS_P1;PMS_P2;Temp;Humidity;BMP_temperature;BMP_pressure;BME280_temperature;BME280_humidity;BME280_pressure;Samples;Min_cycle;Max_cycle;Signal;HPM_P1;HPM_P2
2022/08/09 00:02:30;;;;;;;2.92;2.30;;;;;;;;;;5093105;28;20470;-68
2022/08/09 00:04:57;;;;;;;5.65;2.70;;;;;;;;;;5094244;28;20056;-69
2022/08/09 00:07:43;;;;;;;2.97;2.60;;;;;;;;;;5094670;28;20056;-68
2022/08/09 00:10:10;;;;;;;3.22;2.53;;;;;;;;;;5094365;28;20064;-68
2022/08/09 00:12:43;;;;;;;3.17;2.97;;;;;;;;;;5094408;28;20144;-68
2022/08/09 00:15:11;;;;;;;5.50;2.78;;;;;;;;;;5094302;28;20048;-68
2022/08/09 00:17:39;;;;;;;4.03;2.60;;;;;;;;;;5093178;28;20063;-68
2022/08/09 00:20:26;;;;;;;4.93;2.72;;;;;;;;;;5093585;28;20053;-68
2022/08/09 00:22:56;;;;;;;3.85;2.47;;;;;;;;;;5074421;28;20132;-68
2022/08/09 00:25:33;;;;;;;3.97;2.50;;;;;;;;;;5074211;28;20495;-68
2022/08/09 00:28:00;;;;;;;4.43;2.60;;;;;;;;;;5084264;28;20044;-68
2022/08/09 00:30:29;;;;;;;4.85;2.80;;;;;;;;;;5093562;28;20484;-68
2022/08/09 00:32:56;;;;;;;3.85;2.90;;;;;;;;;;5094157;28;20064;-68
2022/08/09 00:35:23;;;;;;;5.03;2.85;;;;;;;;;;5094119;28;20044;-69
2022/08/09 00:37:49;;;;;;;6.20;3.40;;;;;;;;;;5094172;28;20132;-67
2022/08/09 00:40:16;;;;;;;4.18;2.88;;;;;;;;;;5093913;28;20498;-68
2022/08/09 00:42:45;;;;;;;3.63;2.80;;;;;;;;;;5093525;28;20511;-68
2022/08/09 00:45:31;;;;;;;3.75;3.17;;;;;;;;;;5094243;27;20053;-68
2022/08/09 00:48:00;;;;;;;4.35;3.20;;;;;;;;;;5079307;28;20558;-68
2022/08/09 00:50:26;;;;;;;5.10;3.25;;;;;;;;;;5074163;28;20167;-68
2022/08/09 00:52:53;;;;;;;4.82;2.95;;;;;;;;;;5081483;28;20132;-68
2022/08/09 00:55:20;;;;;;;4.10;2.97;;;;;;;;;;5079408;28;20048;-68
2022/08/09 00:58:06;;;;;;;3.50;3.20;;;;;;;;;;5073094;28;20060;-69
2022/08/09 01:00:36;;;;;;;4.28;3.20;;;;;;;;;;5082988;28;20056;-69
2022/08/09 01:03:28;;;;;;;5.13;2.92;;;;;;;;;;5112782;27;20161;-69
2022/08/09 01:06:04;;;;;;;5.38;3.15;;;;;;;;;;5108321;27;20487;-68
2022/08/09 01:08:44;;;;;;;;;;;;;;;;;;5109671;28;20524;-67
2022/08/09 01:11:33;;;;;;;3.30;2.85;;;;;;;;;;5091737;28;44935;-68
2022/08/09 01:14:12;;;;;;;4.90;3.60;;;;;;;;;;5093035;28;20427;-68
2022/08/09 01:16:41;;;;;;;3.25;2.50;;;;;;;;;;5093721;28;20052;-68
2022/08/09 01:19:15;;;;;;;5.97;3.10;;;;;;;;;;5091615;28;20052;-68
2022/08/09 01:22:13;;;;;;;4.32;3.58;;;;;;;;;;5092049;28;20056;-68
2022/08/09 01:25:00;;;;;;;5.45;3.33;;;;;;;;;;5093507;28;20048;-68
2022/08/09 01:27:28;;;;;;;5.15;3.65;;;;;;;;;;5090171;28;20111;-68
2022/08/09 01:30:01;;;;;;;11.35;4.25;;;;;;;;;;5092336;28;20110;-68
2022/08/09 01:32:32;;;;;;;4.03;2.97;;;;;;;;;;5089873;28;20048;-68
2022/08/09 01:35:08;;;;;;;9.77;3.88;;;;;;;;;;5092405;28;20056;-68
2022/08/09 01:37:57;;;;;;;3.73;3.33;;;;;;;;;;5092677;28;20059;-69
2022/08/09 01:40:37;;;;;;;6.60;3.97;;;;;;;;;;5091180;28;20154;-68
2022/08/09 01:43:05;;;;;;;7.45;3.40;;;;;;;;;;5092646;28;20515;-69
2022/08/09 01:45:32;;;;;;;11.40;2.90;;;;;;;;;;5089966;28;20045;-68
2022/08/09 01:48:01;;;;;;;4.18;3.20;;;;;;;;;;5075446;28;20057;-68
2022/08/09 01:50:31;;;;;;;4.60;3.63;;;;;;;;;;5093098;28;20476;-68
2022/08/09 01:53:07;;;;;;;6.40;3.38;;;;;;;;;;5093008;28;20059;-68
2022/08/09 01:55:46;;;;;;;4.05;3.17;;;;;;;;;;5092549;28;20487;-69
2022/08/09 01:58:13;;;;;;;5.65;3.20;;;;;;;;;;5092670;28;20148;-68
2022/08/09 02:00:40;;;;;;;6.60;4.65;;;;;;;;;;5098479;27;20056;-68
2022/08/09 02:03:12;;;;;;;5.18;3.70;;;;;;;;;;5073578;28;20057;-68
2022/08/09 02:05:39;;;;;;;4.65;3.35;;;;;;;;;;5072327;28;20052;-68
2022/08/09 02:08:26;;;;;;;6.82;3.88;;;;;;;;;;5072749;28;20048;-69
2022/08/09 02:11:13;;;;;;;6.32;3.63;;;;;;;;;;5085567;28;20052;-68
2022/08/09 02:13:43;;;;;;;3.83;3.47;;;;;;;;;;5093612;28;20052;-68
2022/08/09 02:16:32;;;;;;;4.00;3.50;;;;;;;;;;5092884;28;20059;-68
2022/08/09 02:19:18;;;;;;;5.22;4.10;;;;;;;;;;5092353;28;20156;-68
2022/08/09 02:21:48;;;;;;;4.97;3.35;;;;;;;;;;5092283;28;20079;-68
2022/08/09 02:24:22;;;;;;;4.88;3.80;;;;;;;;;;5092175;28;20052;-68
2022/08/09 02:26:54;;;;;;;7.85;4.20;;;;;;;;;;5091787;28;20136;-68
2022/08/09 02:29:26;;;;;;;4.45;3.65;;;;;;;;;;5077852;28;20057;-68
2022/08/09 02:31:54;;;;;;;5.65;3.30;;;;;;;;;;5071388;28;20119;-67
2022/08/09 02:34:25;;;;;;;5.13;3.95;;;;;;;;;;5073320;28;20049;-68
2022/08/09 02:37:13;;;;;;;11.30;4.13;;;;;;;;;;5092363;27;20553;-68
2022/08/09 02:39:49;;;;;;;4.57;3.58;;;;;;;;;;5110656;28;20119;-69
2022/08/09 02:42:31;;;;;;;9.15;4.47;;;;;;;;;;5096351;27;20057;-68
2022/08/09 02:45:03;;;;;;;7.40;4.32;;;;;;;;;;5092289;28;20086;-68
2022/08/09 02:47:32;;;;;;;5.15;4.25;;;;;;;;;;5092711;28;20049;-68
2022/08/09 02:50:33;;;;;;;5.75;3.90;;;;;;;;;;5092715;28;20098;-68
2022/08/09 02:53:01;;;;;;;8.57;4.70;;;;;;;;;;5082896;28;20049;-69
2022/08/09 02:55:30;;;;;;;7.70;4.10;;;;;;;;;;5090072;28;20060;-68
2022/08/09 02:58:18;;;;;;;4.78;4.07;;;;;;;;;;5091687;28;20059;-69
2022/08/09 03:01:02;;;;;;;;;;;;;;;;;;5092315;28;20152;-70
2022/08/09 03:03:29;;;;;;;5.25;4.43;;;;;;;;;;5090781;28;45831;-69
2022/08/09 03:06:17;;;;;;;5.15;3.72;;;;;;;;;;5086494;28;20064;-69
2022/08/09 03:08:47;;;;;;;7.40;4.47;;;;;;;;;;5094959;28;20056;-68
2022/08/09 03:11:16;;;;;;;4.97;4.20;;;;;;;;;;5076681;28;20057;-69
2022/08/09 03:14:03;;;;;;;6.05;4.53;;;;;;;;;;5090634;28;21926;-68
2022/08/09 03:16:30;;;;;;;5.75;4.38;;;;;;;;;;5092197;28;20128;-69
2022/08/09 03:18:58;;;;;;;5.80;4.30;;;;;;;;;;5091395;28;20061;-68
2022/08/09 03:21:27;;;;;;;7.03;4.57;;;;;;;;;;5090328;28;20052;-69
2022/08/09 03:24:02;;;;;;;5.15;4.60;;;;;;;;;;5085990;28;20128;-70
2022/08/09 03:26:32;;;;;;;6.22;4.25;;;;;;;;;;5090935;28;20060;-69
2022/08/09 03:28:59;;;;;;;6.88;4.15;;;;;;;;;;5111217;28;20063;-68
2022/08/09 03:31:26;;;;;;;5.07;4.57;;;;;;;;;;5091999;27;20049;-69
2022/08/09 03:33:53;;;;;;;5.95;4.65;;;;;;;;;;5071552;28;20579;-68
2022/08/09 03:36:23;;;;;;;6.20;5.13;;;;;;;;;;5071448;28;20057;-69
2022/08/09 03:38:53;;;;;;;7.03;4.10;;;;;;;;;;5084763;28;20056;-69
2022/08/09 03:41:21;;;;;;;6.90;4.28;;;;;;;;;;5090691;28;20484;-69
2022/08/09 03:44:07;;;;;;;7.70;5.10;;;;;;;;;;5091191;28;20055;-69
2022/08/09 03:46:35;;;;;;;5.20;4.70;;;;;;;;;;5090204;28;20147;-71
2022/08/09 03:49:02;;;;;;;7.53;4.65;;;;;;;;;;5091224;28;20067;-69
2022/08/09 03:51:36;;;;;;;5.60;4.80;;;;;;;;;;5091401;28;20053;-70
2022/08/09 03:54:25;;;;;;;6.88;4.95;;;;;;;;;;5082158;28;20053;-69
2022/08/09 03:56:55;;;;;;;5.65;4.93;;;;;;;;;;5088639;28;20060;-69
2022/08/09 03:59:23;;;;;;;7.72;5.47;;;;;;;;;;5085329;28;20048;-69
2022/08/09 04:02:09;;;;;;;9.32;5.63;;;;;;;;;;5090162;28;20062;-71
2022/08/09 04:04:35;;;;;;;7.00;5.18;;;;;;;;;;5080300;28;20056;-68
2022/08/09 04:07:04;;;;;;;7.68;4.95;;;;;;;;;;5077247;28;20063;-69
2022/08/09 04:09:31;;;;;;;5.07;4.50;;;;;;;;;;5091490;28;20492;-69
2022/08/09 04:12:15;;;;;;;6.45;4.75;;;;;;;;;;5074615;28;20048;-69
2022/08/09 04:14:57;;;;;;;6.20;4.75;;;;;;;;;;5092496;28;20132;-69
2022/08/09 04:17:37;;;;;;;7.65;4.95;;;;;;;;;;5094625;28;20144;-69
2022/08/09 04:20:05;;;;;;;8.23;4.30;;;;;;;;;;5095251;28;20122;-70
2022/08/09 04:22:32;;;;;;;6.82;5.43;;;;;;;;;;5100512;27;20127;-69
2022/08/09 04:24:59;;;;;;;8.93;5.00;;;;;;;;;;5096114;27;20048;-69
2022/08/09 04:27:28;;;;;;;7.50;5.22;;;;;;;;;;5103369;28;21081;-69
2022/08/09 04:29:54;;;;;;;6.15;4.45;;;;;;;;;;5098036;28;20056;-69
2022/08/09 04:32:21;;;;;;;7.50;4.30;;;;;;;;;;5094501;28;20044;-69
2022/08/09 04:34:59;;;;;;;5.38;4.50;;;;;;;;;;5088942;28;20056;-69
2022/08/09 04:37:26;;;;;;;8.35;4.30;;;;;;;;;;5093911;28;20052;-69
2022/08/09 04:40:12;;;;;;;5.07;4.05;;;;;;;;;;5097162;28;20048;-69
2022/08/09 04:42:54;;;;;;;5.85;5.03;;;;;;;;;;5114846;27;20052;-69
2022/08/09 04:45:22;;;;;;;6.65;4.95;;;;;;;;;;5092884;28;20064;-69
2022/08/09 04:47:48;;;;;;;8.80;4.85;;;;;;;;;;5094011;28;20416;-69
2022/08/09 04:50:28;;;;;;;7.28;4.80;;;;;;;;;;5094619;28;20052;-68
2022/08/09 04:53:00;;;;;;;6.78;4.93;;;;;;;;;;5089166;28;20144;-69
2022/08/09 04:55:27;;;;;;;8.02;4.82;;;;;;;;;;5074802;28;20056;-69
2022/08/09 04:58:16;;;;;;;7.60;4.57;;;;;;;;;;5086276;28;20057;-68
2022/08/09 05:00:44;;;;;;;7.70;5.28;;;;;;;;;;5098529;28;20056;-68
2022/08/09 05:03:11;;;;;;;5.15;4.47;;;;;;;;;;5091616;28;20625;-68
2022/08/09 05:05:57;;;;;;;7.93;5.35;;;;;;;;;;5087187;27;20068;-67
2022/08/09 05:08:33;;;;;;;8.90;5.20;;;;;;;;;;5074962;28;20060;-68
2022/08/09 05:11:00;;;;;;;6.47;5.20;;;;;;;;;;5075750;28;20056;-69
2022/08/09 05:13:27;;;;;;;7.43;5.60;;;;;;;;;;5094004;28;20053;-68
2022/08/09 05:15:58;;;;;;;6.07;4.85;;;;;;;;;;5094097;28;20127;-68
2022/08/09 05:18:28;;;;;;;6.90;5.20;;;;;;;;;;5093744;28;20492;-69
2022/08/09 05:21:07;;;;;;;7.30;5.40;;;;;;;;;;5093819;28;20191;-68
2022/08/09 05:23:48;;;;;;;6.57;5.18;;;;;;;;;;5094162;28;20198;-68
2022/08/09 05:26:26;;;;;;;5.15;4.65;;;;;;;;;;5078273;28;20140;-68
2022/08/09 05:29:12;;;;;;;9.05;5.43;;;;;;;;;;5093783;28;20057;-69
2022/08/09 05:31:47;;;;;;;10.20;6.07;;;;;;;;;;5083557;28;20053;-68
2022/08/09 05:34:23;;;;;;;9.70;5.13;;;;;;;;;;5094005;28;20056;-67
2022/08/09 05:36:57;;;;;;;10.10;4.85;;;;;;;;;;5092830;28;20139;-69
2022/08/09 05:39:27;;;;;;;9.00;5.85;;;;;;;;;;5087517;28;20057;-69
2022/08/09 05:42:02;;;;;;;7.72;4.97;;;;;;;;;;5073993;28;20122;-68
2022/08/09 05:44:31;;;;;;;7.80;5.38;;;;;;;;;;5075622;28;20053;-68
2022/08/09 05:47:00;;;;;;;7.40;5.13;;;;;;;;;;5093025;28;20060;-68
2022/08/09 05:49:31;;;;;;;12.68;5.55;;;;;;;;;;5092121;28;20148;-67
2022/08/09 05:52:17;;;;;;;8.63;5.07;;;;;;;;;;5079202;28;20056;-68
2022/08/09 05:54:47;;;;;;;7.82;5.30;;;;;;;;;;5090542;28;20076;-69
2022/08/09 05:57:14;;;;;;;8.30;4.75;;;;;;;;;;5100056;28;20056;-68
2022/08/09 05:59:44;;;;;;;7.43;5.18;;;;;;;;;;5106997;28;20491;-68
2022/08/09 06:02:10;;;;;;;9.45;4.97;;;;;;;;;;5092273;28;20059;-68
2022/08/09 06:04:42;;;;;;;6.93;4.68;;;;;;;;;;5093256;28;20079;-67
2022/08/09 06:07:11;;;;;;;7.03;4.80;;;;;;;;;;5093205;28;20492;-68
2022/08/09 06:09:47;;;;;;;8.68;5.05;;;;;;;;;;5092537;28;20147;-68
2022/08/09 06:12:27;;;;;;;5.35;4.13;;;;;;;;;;5088762;28;20110;-68
2022/08/09 06:14:54;;;;;;;8.10;4.30;;;;;;;;;;5073034;28;20049;-68
2022/08/09 06:17:26;;;;;;;6.47;4.05;;;;;;;;;;5087330;28;20455;-69
2022/08/09 06:20:05;;;;;;;9.52;4.30;;;;;;;;;;5092430;28;20056;-69
2022/08/09 06:22:33;;;;;;;7.65;3.83;;;;;;;;;;5092930;28;20053;-70
2022/08/09 06:24:59;;;;;;;5.10;3.83;;;;;;;;;;5093366;28;20052;-66
2022/08/09 06:27:26;;;;;;;6.25;4.32;;;;;;;;;;5092078;28;20138;-70
2022/08/09 06:30:08;;;;;;;6.25;3.67;;;;;;;;;;5087953;28;20573;-70
2022/08/09 06:32:35;;;;;;;6.10;3.53;;;;;;;;;;5086179;28;20053;-68
2022/08/09 06:35:23;;;;;;;8.43;3.55;;;;;;;;;;5074941;28;20489;-70
2022/08/09 06:38:09;;;;;;;7.38;4.25;;;;;;;;;;5092081;28;20052;-70
2022/08/09 06:40:36;;;;;;;3.95;3.53;;;;;;;;;;5092584;28;20060;-70
2022/08/09 06:43:03;;;;;;;5.75;4.07;;;;;;;;;;5094761;28;20139;-70
2022/08/09 06:45:34;;;;;;;6.65;3.50;;;;;;;;;;5092946;28;20524;-70
2022/08/09 06:48:20;;;;;;;10.88;3.92;;;;;;;;;;5093333;28;20052;-72
2022/08/09 06:50:56;;;;;;;4.03;3.63;;;;;;;;;;5093164;28;20524;-71
2022/08/09 06:53:23;;;;;;;8.40;3.60;;;;;;;;;;5092708;28;20060;-69
2022/08/09 06:55:51;;;;;;;3.90;3.50;;;;;;;;;;5092210;28;20506;-69
2022/08/09 06:58:17;;;;;;;4.93;3.08;;;;;;;;;;5092055;28;20056;-71
2022/08/09 07:01:04;;;;;;;7.55;3.53;;;;;;;;;;5070864;28;20949;-70
2022/08/09 07:03:33;;;;;;;7.10;4.55;;;;;;;;;;5098356;27;20139;-71
2022/08/09 07:06:08;;;;;;;4.13;3.08;;;;;;;;;;5091228;28;20496;-71
2022/08/09 07:08:36;;;;;;;4.20;2.88;;;;;;;;;;5092273;28;20420;-70
2022/08/09 07:11:04;;;;;;;5.43;3.65;;;;;;;;;;5093059;28;20067;-72
2022/08/09 07:13:32;;;;;;;4.85;2.95;;;;;;;;;;5092897;28;20055;-72
2022/08/09 07:16:18;;;;;;;6.68;3.00;;;;;;;;;;5092321;28;20148;-69
2022/08/09 07:19:04;;;;;;;6.00;2.53;;;;;;;;;;5095621;28;20048;-69
2022/08/09 07:21:33;;;;;;;5.63;3.08;;;;;;;;;;5103505;27;20068;-71
2022/08/09 07:23:59;;;;;;;8.73;3.30;;;;;;;;;;5092136;28;20053;-73
2022/08/09 07:26:28;;;;;;;2.85;2.55;;;;;;;;;;5092702;28;20059;-73
2022/08/09 07:28:54;;;;;;;6.57;2.67;;;;;;;;;;5092871;28;20451;-71
2022/08/09 07:31:34;;;;;;;7.95;4.18;;;;;;;;;;5092875;28;20055;-71
2022/08/09 07:34:10;;;;;;;4.07;2.83;;;;;;;;;;5092631;28;20513;-73
2022/08/09 07:36:48;;;;;;;2.92;2.58;;;;;;;;;;5092419;28;20048;-71
2022/08/09 07:39:15;;;;;;;4.35;2.50;;;;;;;;;;5093313;28;20053;-71
2022/08/09 07:42:01;;;;;;;2.17;1.98;;;;;;;;;;5095019;28;20057;-72
2022/08/09 07:44:30;;;;;;;2.70;2.40;;;;;;;;;;5095432;28;20045;-72
2022/08/09 07:47:16;;;;;;;3.10;1.95;;;;;;;;;;5096474;27;20055;-73
2022/08/09 07:49:43;;;;;;;2.10;1.90;;;;;;;;;;5111571;28;20539;-72
2022/08/09 07:52:29;;;;;;;2.78;1.80;;;;;;;;;;5096635;28;20053;-72
2022/08/09 07:54:56;;;;;;;3.83;2.15;;;;;;;;;;5092606;28;20071;-71
2022/08/09 07:57:22;;;;;;;3.63;2.20;;;;;;;;;;5092739;28;20071;-70
2022/08/09 08:00:02;;;;;;;2.33;1.80;;;;;;;;;;5095002;28;20143;-70
2022/08/09 08:02:34;;;;;;;2.92;1.90;;;;;;;;;;5093785;28;20110;-69
2022/08/09 08:05:07;;;;;;;2.47;1.52;;;;;;;;;;5094789;28;20052;-69
2022/08/09 08:07:44;;;;;;;3.03;1.65;;;;;;;;;;5112360;28;20139;-71
2022/08/09 08:10:31;;;;;;;7.32;1.77;;;;;;;;;;5116037;27;20048;-71
2022/08/09 08:12:59;;;;;;;2.75;1.50;;;;;;;;;;5094729;27;20049;-69
2022/08/09 08:15:28;;;;;;;2.05;1.80;;;;;;;;;;5074860;28;20960;-69
2022/08/09 08:18:00;;;;;;;1.33;1.10;;;;;;;;;;5075238;28;20134;-71
2022/08/09 08:20:28;;;;;;;2.13;1.35;;;;;;;;;;5076720;28;20049;-71
2022/08/09 08:22:59;;;;;;;4.10;1.55;;;;;;;;;;5098333;28;20127;-72
2022/08/09 08:25:32;;;;;;;4.53;1.90;;;;;;;;;;5095065;28;20053;-69
2022/08/09 08:28:14;;;;;;;1.92;1.48;;;;;;;;;;5093929;28;20063;-70
2022/08/09 08:30:43;;;;;;;2.58;1.58;;;;;;;;;;5074765;28;20544;-70
2022/08/09 08:33:13;;;;;;;9.40;1.50;;;;;;;;;;5084550;27;20057;-68
2022/08/09 08:35:49;;;;;;;2.60;1.33;;;;;;;;;;5095903;28;20056;-69
2022/08/09 08:38:27;;;;;;;2.17;1.67;;;;;;;;;;5095345;27;20134;-69
2022/08/09 08:40:54;;;;;;;3.72;1.80;;;;;;;;;;5083613;28;20620;-70
2022/08/09 08:43:22;;;;;;;1.80;1.40;;;;;;;;;;5095512;27;20159;-69
2022/08/09 08:45:49;;;;;;;4.00;1.70;;;;;;;;;;5094194;28;20049;-69
2022/08/09 08:48:33;;;;;;;1.83;1.40;;;;;;;;;;5094366;28;20463;-70
2022/08/09 08:51:01;;;;;;;1.60;1.23;;;;;;;;;;5093936;28;20059;-69
2022/08/09 08:53:28;;;;;;;1.40;1.20;;;;;;;;;;5087789;28;20049;-68
2022/08/09 08:56:02;;;;;;;2.60;2.00;;;;;;;;;;5104701;28;20056;-69
2022/08/09 08:58:30;;;;;;;1.85;1.65;;;;;;;;;;5104575;28;20059;-69
2022/08/09 09:01:01;;;;;;;1.80;1.40;;;;;;;;;;5094253;28;20094;-72
2022/08/09 09:03:35;;;;;;;2.72;1.50;;;;;;;;;;5093851;28;20056;-71
2022/08/09 09:06:04;;;;;;;1.42;1.13;;;;;;;;;;5092822;27;20135;-70
2022/08/09 09:08:33;;;;;;;1.27;1.15;;;;;;;;;;5092664;28;20048;-70
2022/08/09 09:11:06;;;;;;;;;;;;;;;;;;5094053;28;20049;-71
2022/08/09 09:13:38;;;;;;;3.13;1.10;;;;;;;;;;5092985;28;46036;-70
2022/08/09 09:16:23;;;;;;;1.23;1.10;;;;;;;;;;5093986;28;20060;-69
2022/08/09 09:18:57;;;;;;;1.92;1.30;;;;;;;;;;5092089;28;20063;-70
2022/08/09 09:21:56;;;;;;;2.97;1.48;;;;;;;;;;5108737;28;20083;-72
2022/08/09 09:24:27;;;;;;;1.83;1.10;;;;;;;;;;5114487;27;20147;-71
2022/08/09 09:26:55;;;;;;;1.38;0.82;;;;;;;;;;5088224;27;20061;-69
2022/08/09 09:29:29;;;;;;;1.20;0.90;;;;;;;;;;5087523;28;20484;-69
2022/08/09 09:32:25;;;;;;;1.20;1.10;;;;;;;;;;5072654;28;20053;-68
2022/08/09 09:35:02;;;;;;;1.48;0.98;;;;;;;;;;5073286;28;20142;-70
2022/08/09 09:37:34;;;;;;;1.13;1.00;;;;;;;;;;5087329;28;20057;-70
2022/08/09 09:40:01;;;;;;;0.73;0.73;;;;;;;;;;5096718;28;20053;-69
2022/08/09 09:42:29;;;;;;;1.02;0.93;;;;;;;;;;5091326;28;20048;-68
2022/08/09 09:45:01;;;;;;;0.75;0.70;;;;;;;;;;5087004;28;20049;-70
2022/08/09 09:47:28;;;;;;;4.13;1.85;;;;;;;;;;5075393;28;20057;-69
2022/08/09 09:49:58;;;;;;;1.50;0.90;;;;;;;;;;5087917;28;20056;-70
2022/08/09 09:52:48;;;;;;;2.70;0.90;;;;;;;;;;5093243;27;20048;-68
2022/08/09 09:55:19;;;;;;;0.80;0.80;;;;;;;;;;5092857;28;20052;-69
2022/08/09 09:58:00;;;;;;;4.70;1.00;;;;;;;;;;5096788;28;20055;-69
2022/08/09 10:00:47;;;;;;;1.42;0.80;;;;;;;;;;5088315;28;20131;-70
2022/08/09 10:03:42;;;;;;;1.38;0.80;;;;;;;;;;5088125;28;20063;-71
2022/08/09 10:06:10;;;;;;;0.95;0.70;;;;;;;;;;5072697;28;20133;-69
2022/08/09 10:08:38;;;;;;;3.00;0.80;;;;;;;;;;5080090;28;20052;-69
2022/08/09 10:11:24;;;;;;;2.05;1.00;;;;;;;;;;5093657;28;20053;-72
2022/08/09 10:14:27;;;;;;;1.10;0.90;;;;;;;;;;5092828;28;20052;-70
2022/08/09 10:17:07;;;;;;;1.45;0.60;;;;;;;;;;5088292;28;20103;-69
2022/08/09 10:19:53;;;;;;;2.05;0.63;;;;;;;;;;5074411;28;20049;-70
2022/08/09 10:22:32;;;;;;;0.95;0.88;;;;;;;;;;5070917;28;20057;-72
2022/08/09 10:25:06;;;;;;;1.27;0.80;;;;;;;;;;5091440;28;20092;-71
2022/08/09 10:27:42;;;;;;;1.30;0.80;;;;;;;;;;5098368;28;20083;-70
2022/08/09 10:30:22;;;;;;;1.45;0.70;;;;;;;;;;5092994;28;20061;-72
2022/08/09 10:33:09;;;;;;;1.17;0.60;;;;;;;;;;5070858;28;20523;-68
2022/08/09 10:35:55;;;;;;;0.60;0.60;;;;;;;;;;5079051;28;20430;-70
2022/08/09 10:38:26;;;;;;;0.60;0.50;;;;;;;;;;5093616;28;20056;-71
2022/08/09 10:41:13;;;;;;;1.58;0.60;;;;;;;;;;5088393;28;20048;-69
2022/08/09 10:43:41;;;;;;;1.15;0.70;;;;;;;;;;5087018;28;20144;-68
2022/08/09 10:46:43;;;;;;;1.17;0.70;;;;;;;;;;5091039;28;20102;-71
2022/08/09 10:49:28;;;;;;;0.70;0.70;;;;;;;;;;5090441;28;20052;-71
2022/08/09 10:52:39;;;;;;;3.35;0.60;;;;;;;;;;5072318;28;20080;-70
2022/08/09 10:55:19;;;;;;;0.63;0.60;;;;;;;;;;5091369;28;20057;-70
2022/08/09 10:57:45;;;;;;;2.13;0.70;;;;;;;;;;5091877;28;20437;-71
2022/08/09 11:00:35;;;;;;;0.85;0.70;;;;;;;;;;5092451;28;20118;-71
2022/08/09 11:03:23;;;;;;;0.50;0.32;;;;;;;;;;5089357;28;20138;-72
2022/08/09 11:06:17;;;;;;;2.97;0.82;;;;;;;;;;5096749;27;20059;-69
2022/08/09 11:08:44;;;;;;;1.55;0.70;;;;;;;;;;5081716;28;20060;-70
2022/08/09 11:11:17;;;;;;;2.17;0.63;;;;;;;;;;5090858;28;20107;-69
2022/08/09 11:13:44;;;;;;;1.10;0.50;;;;;;;;;;5091719;28;20059;-69
2022/08/09 11:16:33;;;;;;;1.80;0.80;;;;;;;;;;5092315;28;20048;-71
2022/08/09 11:19:03;;;;;;;11.95;1.65;;;;;;;;;;5095581;28;20059;-69
2022/08/09 11:21:54;;;;;;;1.63;0.50;;;;;;;;;;5095157;28;20143;-69
2022/08/09 11:24:59;;;;;;;0.75;0.50;;;;;;;;;;5094352;28;20152;-71
2022/08/09 11:27:28;;;;;;;3.25;0.60;;;;;;;;;;5094673;28;20518;-72
2022/08/09 11:30:25;;;;;;;1.33;0.90;;;;;;;;;;5074139;28;20064;-70
2022/08/09 11:32:59;;;;;;;0.57;0.50;;;;;;;;;;5073351;28;20567;-72
2022/08/09 11:35:32;;;;;;;0.63;0.60;;;;;;;;;;5074844;28;20048;-70
2022/08/09 11:38:14;;;;;;;1.00;0.70;;;;;;;;;;5079807;28;20394;-71
2022/08/09 11:40:42;;;;;;;0.55;0.55;;;;;;;;;;5095350;28;20550;-71
2022/08/09 11:43:13;;;;;;;1.17;0.60;;;;;;;;;;5094985;28;20478;-72
2022/08/09 11:45:42;;;;;;;1.15;0.50;;;;;;;;;;5094774;28;20132;-72
2022/08/09 11:48:11;;;;;;;0.98;0.68;;;;;;;;;;5093746;28;20506;-71
2022/08/09 11:50:56;;;;;;;1.23;0.50;;;;;;;;;;5078083;28;20554;-71
2022/08/09 11:53:43;;;;;;;1.55;0.70;;;;;;;;;;5094725;28;20056;-70
2022/08/09 11:56:27;;;;;;;0.95;0.50;;;;;;;;;;5094865;28;20151;-72
2022/08/09 11:59:23;;;;;;;0.63;0.47;;;;;;;;;;5094336;28;20059;-71
2022/08/09 12:01:56;;;;;;;0.70;0.57;;;;;;;;;;5099339;28;20052;-69
2022/08/09 12:04:42;;;;;;;0.77;0.60;;;;;;;;;;5097883;27;20048;-71
2022/08/09 12:07:09;;;;;;;1.52;0.60;;;;;;;;;;5093316;28;20060;-69
2022/08/09 12:09:44;;;;;;;4.43;0.60;;;;;;;;;;5100301;28;20056;-71
2022/08/09 12:12:17;;;;;;;3.10;0.80;;;;;;;;;;5100457;27;20052;-69
2022/08/09 12:14:54;;;;;;;0.82;0.47;;;;;;;;;;5092223;27;20091;-69
2022/08/09 12:17:35;;;;;;;1.17;0.70;;;;;;;;;;5094242;28;20464;-69
2022/08/09 12:20:12;;;;;;;2.28;0.52;;;;;;;;;;5093977;28;20060;-69
2022/08/09 12:22:48;;;;;;;1.52;1.00;;;;;;;;;;5093297;28;20064;-70
2022/08/09 12:25:17;;;;;;;5.35;1.35;;;;;;;;;;5105314;28;20067;-71
2022/08/09 12:28:11;;;;;;;1.73;0.52;;;;;;;;;;5092527;28;20052;-70
2022/08/09 12:30:57;;;;;;;0.60;0.52;;;;;;;;;;5093662;28;20063;-70
2022/08/09 12:33:24;;;;;;;0.50;0.50;;;;;;;;;;5085125;28;20099;-70
2022/08/09 12:36:10;;;;;;;1.05;0.55;;;;;;;;;;5074766;28;20053;-69
2022/08/09 12:38:56;;;;;;;0.50;0.50;;;;;;;;;;5083586;28;20055;-72
2022/08/09 12:41:30;;;;;;;1.67;0.60;;;;;;;;;;5094215;28;20178;-71
2022/08/09 12:44:05;;;;;;;0.63;0.40;;;;;;;;;;5093370;28;20057;-71
2022/08/09 12:46:43;;;;;;;2.88;1.33;;;;;;;;;;5092567;28;20052;-70
2022/08/09 12:49:15;;;;;;;0.57;0.50;;;;;;;;;;5092886;28;20052;-69
2022/08/09 12:51:51;;;;;;;0.52;0.50;;;;;;;;;;5094147;28;20991;-67
2022/08/09 12:54:28;;;;;;;0.47;0.47;;;;;;;;;;5092646;28;20059;-69
2022/08/09 12:56:57;;;;;;;1.77;0.60;;;;;;;;;;5093199;28;20060;-68
2022/08/09 12:59:24;;;;;;;3.70;0.60;;;;;;;;;;5092526;28;20147;-69
2022/08/09 13:02:10;;;;;;;0.50;0.50;;;;;;;;;;5094188;28;20052;-70
2022/08/09 13:04:40;;;;;;;3.20;0.50;;;;;;;;;;5085243;28;20507;-71
2022/08/09 13:07:09;;;;;;;0.77;0.60;;;;;;;;;;5082726;28;20056;-70
2022/08/09 13:09:36;;;;;;;0.90;0.50;;;;;;;;;;5093784;28;20114;-71
2022/08/09 13:12:07;;;;;;;0.43;0.43;;;;;;;;;;5093264;28;20064;-72
2022/08/09 13:14:33;;;;;;;0.40;0.40;;;;;;;;;;5089472;28;20052;-71
2022/08/09 13:17:14;;;;;;;1.48;0.70;;;;;;;;;;5089903;28;20051;-69
2022/08/09 13:19:44;;;;;;;1.00;0.50;;;;;;;;;;5087300;28;20053;-69
2022/08/09 13:22:30;;;;;;;0.75;0.65;;;;;;;;;;5086063;28;20507;-68
2022/08/09 13:25:12;;;;;;;3.70;0.70;;;;;;;;;;5096442;28;20063;-69
2022/08/09 13:27:40;;;;;;;0.88;0.32;;;;;;;;;;5105209;27;20044;-70
2022/08/09 13:30:20;;;;;;;0.55;0.55;;;;;;;;;;5093858;28;20087;-70
2022/08/09 13:33:07;;;;;;;1.65;0.50;;;;;;;;;;5093386;28;20052;-72
2022/08/09 13:35:37;;;;;;;0.73;0.45;;;;;;;;;;5090973;28;20140;-71
2022/08/09 13:38:23;;;;;;;2.05;0.63;;;;;;;;;;5091378;28;20059;-69
2022/08/09 13:41:10;;;;;;;2.78;0.60;;;;;;;;;;5095317;28;20055;-67
2022/08/09 13:43:56;;;;;;;0.52;0.52;;;;;;;;;;5089838;28;20503;-68
2022/08/09 13:46:24;;;;;;;0.55;0.55;;;;;;;;;;5086841;28;20101;-68
2022/08/09 13:49:10;;;;;;;2.97;0.47;;;;;;;;;;5088697;28;20059;-69
2022/08/09 13:51:43;;;;;;;1.98;0.50;;;;;;;;;;5091676;28;20496;-71
2022/08/09 13:54:26;;;;;;;1.95;0.50;;;;;;;;;;5089875;28;20056;-70
2022/08/09 13:56:55;;;;;;;1.25;0.55;;;;;;;;;;5086622;28;20138;-71
2022/08/09 13:59:21;;;;;;;4.13;1.08;;;;;;;;;;5083834;28;20076;-72
2022/08/09 14:01:50;;;;;;;0.55;0.52;;;;;;;;;;5073332;28;20136;-71
2022/08/09 14:04:27;;;;;;;1.02;0.88;;;;;;;;;;5089266;28;20056;-71
2022/08/09 14:07:01;;;;;;;2.00;0.63;;;;;;;;;;5094171;28;20496;-74
2022/08/09 14:09:28;;;;;;;;;;;;;;;;;;5092734;28;20498;-72
2022/08/09 14:11:56;;;;;;;0.60;0.60;;;;;;;;;;5094162;28;46993;-71
2022/08/09 14:14:23;;;;;;;0.50;0.50;;;;;;;;;;5096293;28;20056;-70
2022/08/09 14:16:53;;;;;;;1.02;0.70;;;;;;;;;;5093056;28;20048;-68
2022/08/09 14:19:20;;;;;;;2.95;0.80;;;;;;;;;;5094105;28;20139;-70
2022/08/09 14:21:47;;;;;;;1.50;0.73;;;;;;;;;;5095552;28;20060;-70
2022/08/09 14:24:15;;;;;;;0.75;0.60;;;;;;;;;;5093331;28;20053;-71
2022/08/09 14:26:57;;;;;;;0.73;0.73;;;;;;;;;;5092853;28;20057;-71
2022/08/09 14:29:23;;;;;;;0.93;0.60;;;;;;;;;;5094287;28;20055;-71
2022/08/09 14:32:09;;;;;;;4.53;0.88;;;;;;;;;;5094820;28;20053;-72
2022/08/09 14:34:41;;;;;;;4.20;0.90;;;;;;;;;;5100203;28;20539;-74
2022/08/09 14:37:08;;;;;;;0.65;0.65;;;;;;;;;;5083734;28;20505;-74
2022/08/09 14:39:37;;;;;;;1.70;1.17;;;;;;;;;;5124359;27;20143;-72
2022/08/09 14:42:14;;;;;;;1.30;1.08;;;;;;;;;;5104811;28;20575;-70
2022/08/09 14:44:57;;;;;;;1.10;0.70;;;;;;;;;;5091308;28;20424;-71
2022/08/09 14:47:25;;;;;;;0.77;0.50;;;;;;;;;;5088960;28;20052;-68
2022/08/09 14:50:12;;;;;;;2.60;0.80;;;;;;;;;;5082916;28;20048;-70
2022/08/09 14:52:41;;;;;;;1.45;0.60;;;;;;;;;;5087210;28;20118;-70
2022/08/09 14:55:08;;;;;;;1.48;0.75;;;;;;;;;;5082120;28;20135;-71
2022/08/09 14:57:34;;;;;;;0.45;0.45;;;;;;;;;;5090757;28;20053;-69
2022/08/09 15:00:10;;;;;;;0.80;0.52;;;;;;;;;;5089690;28;20134;-69
2022/08/09 15:02:37;;;;;;;0.77;0.57;;;;;;;;;;5083132;28;20110;-70
2022/08/09 15:05:05;;;;;;;1.65;0.57;;;;;;;;;;5076225;28;20490;-69
2022/08/09 15:07:33;;;;;;;0.60;0.60;;;;;;;;;;5088058;28;20099;-70
2022/08/09 15:10:01;;;;;;;1.35;0.80;;;;;;;;;;5086236;28;20494;-68
2022/08/09 15:12:36;;;;;;;2.67;0.65;;;;;;;;;;5089053;28;20143;-68
2022/08/09 15:15:03;;;;;;;0.63;0.57;;;;;;;;;;5091598;28;20147;-68
2022/08/09 15:17:35;;;;;;;0.60;0.47;;;;;;;;;;5094283;28;20427;-72
2022/08/09 15:20:11;;;;;;;1.42;0.60;;;;;;;;;;5098951;28;20067;-69
2022/08/09 15:22:58;;;;;;;1.20;0.40;;;;;;;;;;5096041;27;20510;-69
2022/08/09 15:25:44;;;;;;;0.60;0.50;;;;;;;;;;5091608;28;20074;-72
2022/08/09 15:28:10;;;;;;;0.70;0.70;;;;;;;;;;5090687;28;20063;-70
2022/08/09 15:30:52;;;;;;;0.63;0.50;;;;;;;;;;5096818;28;20504;-69